CYNL

METAR CYNL 041500Z AUTO 04006KT 9SM OVC004 M13/M15 A3027 RMK AO1 PRESRR SLP311
METAR
LOCATION
CYNL
DATE - TIME
041500Z
WIND
040 TRUE @ 6 KNOTS
VISIBILITY
9SM
RUNWAY VISUAL RANGE
NOT REPORTED
WEATHER
CLOUDINESS
OVC004
TEMP / DEWPOINT
-13 ºC / -15 ºC
ALTIMETER
30.27 in. Hg
RECENT WEATHER
NOT REPORTED
WIND SHEAR
NOT REPORTED
REMARKS
RMK AO1 PRESRR SLP311
SEA LEVEL PRESSURE: hPa

CYNL

METAR CYNL 041400Z AUTO 04007KT 9SM OVC003 M13/M15 A3024 RMK AO1 PRESRR SLP298
METAR
LOCATION
CYNL
DATE - TIME
041400Z
WIND
040 TRUE @ 7 KNOTS
VISIBILITY
9SM
RUNWAY VISUAL RANGE
NOT REPORTED
WEATHER
CLOUDINESS
OVC003
TEMP / DEWPOINT
-13 ºC / -15 ºC
ALTIMETER
30.24 in. Hg
RECENT WEATHER
NOT REPORTED
WIND SHEAR
NOT REPORTED
REMARKS
RMK AO1 PRESRR SLP298
SEA LEVEL PRESSURE: hPa

CYNL

SPECI CYNL 041317Z AUTO 04006KT 9SM BKN004 OVC049 M12/M14 A3022 RMK AO1 PRESRR SLP287
SPECI
LOCATION
CYNL
DATE - TIME
041317Z
WIND
040 TRUE @ 6 KNOTS
VISIBILITY
9SM
RUNWAY VISUAL RANGE
NOT REPORTED
WEATHER
CLOUDINESS
BKN004 OVC049
TEMP / DEWPOINT
-12 ºC / -14 ºC
ALTIMETER
30.22 in. Hg
RECENT WEATHER
NOT REPORTED
WIND SHEAR
NOT REPORTED
REMARKS
RMK AO1 PRESRR SLP287
SEA LEVEL PRESSURE: hPa

Your time UTC time
 
 
Weather data provided by AXYS Technologies Inc., www.axystechnologies.com
 
Station History